sensor_id;sensor_type;location;lat;lon;timestamp;pressure;altitude;pressure_sealevel;temperature;humidity
30682;BME280;17439;48.092;11.842;2022-07-01T00:01:08;95226.13;;;21.61;60.55
30682;BME280;17439;48.092;11.842;2022-07-01T00:03:34;95234.81;;;21.63;60.30
30682;BME280;17439;48.092;11.842;2022-07-01T00:06:01;95234.81;;;21.63;60.30
30682;BME280;17439;48.092;11.842;2022-07-01T00:08:28;95231.28;;;21.66;60.21
30682;BME280;17439;48.092;11.842;2022-07-01T00:10:54;95242.31;;;21.66;60.33
30682;BME280;17439;48.092;11.842;2022-07-01T00:13:21;95245.88;;;21.67;59.89
30682;BME280;17439;48.092;11.842;2022-07-01T00:15:47;95247.44;;;21.68;59.96
30682;BME280;17439;48.092;11.842;2022-07-01T00:18:14;95248.25;;;21.68;60.01
30682;BME280;17439;48.092;11.842;2022-07-01T00:20:41;95249.41;;;21.67;60.36
30682;BME280;17439;48.092;11.842;2022-07-01T00:23:07;95257.69;;;21.67;60.31
30682;BME280;17439;48.092;11.842;2022-07-01T00:25:34;95260.44;;;21.64;60.40
30682;BME280;17439;48.092;11.842;2022-07-01T00:28:00;95259.22;;;21.61;60.87
30682;BME280;17439;48.092;11.842;2022-07-01T00:30:27;95260.81;;;21.62;60.91
30682;BME280;17439;48.092;11.842;2022-07-01T00:32:54;95271.84;;;21.62;60.51
30682;BME280;17439;48.092;11.842;2022-07-01T00:35:20;95267.91;;;21.60;60.79
30682;BME280;17439;48.092;11.842;2022-07-01T00:37:47;95285.59;;;21.55;61.50
30682;BME280;17439;48.092;11.842;2022-07-01T00:40:14;95282.06;;;21.54;61.45
30682;BME280;17439;48.092;11.842;2022-07-01T00:42:41;95292.31;;;21.54;61.84
30682;BME280;17439;48.092;11.842;2022-07-01T00:45:08;95308.47;;;21.55;61.45
30682;BME280;17439;48.092;11.842;2022-07-01T00:47:40;95299.81;;;21.57;61.70
30682;BME280;17439;48.092;11.842;2022-07-01T00:50:09;95304.13;;;21.58;61.42
30682;BME280;17439;48.092;11.842;2022-07-01T00:52:38;95317.16;;;21.61;61.46
30682;BME280;17439;48.092;11.842;2022-07-01T00:55:07;95302.59;;;21.61;61.81
30682;BME280;17439;48.092;11.842;2022-07-01T00:57:35;95295.47;;;21.63;61.58
30682;BME280;17439;48.092;11.842;2022-07-01T01:00:06;95295.09;;;21.65;61.43
30682;BME280;17439;48.092;11.842;2022-07-01T01:02:33;95291.56;;;21.64;61.09
30682;BME280;17439;48.092;11.842;2022-07-01T01:05:00;95295.91;;;21.65;61.12
30682;BME280;17439;48.092;11.842;2022-07-01T01:07:27;95286.44;;;21.66;61.05
30682;BME280;17439;48.092;11.842;2022-07-01T01:09:53;95287.63;;;21.65;60.92
30682;BME280;17439;48.092;11.842;2022-07-01T01:12:20;95286.44;;;21.63;60.49
30682;BME280;17439;48.092;11.842;2022-07-01T01:14:48;95289.19;;;21.63;60.66
30682;BME280;17439;48.092;11.842;2022-07-01T01:17:16;95291.16;;;21.62;60.45
30682;BME280;17439;48.092;11.842;2022-07-01T01:19:43;95300.53;;;21.50;59.92
30682;BME280;17439;48.092;11.842;2022-07-01T01:22:14;95299.41;;;21.59;59.71
30682;BME280;17439;48.092;11.842;2022-07-01T01:24:41;95301.81;;;21.64;59.33
30682;BME280;17439;48.092;11.842;2022-07-01T01:27:08;95301.00;;;21.63;59.39
30682;BME280;17439;48.092;11.842;2022-07-01T01:29:36;95305.75;;;21.66;59.14
30682;BME280;17439;48.092;11.842;2022-07-01T01:32:04;95319.13;;;21.57;59.06
30682;BME280;17439;48.092;11.842;2022-07-01T01:34:32;95300.22;;;21.66;58.47
30682;BME280;17439;48.092;11.842;2022-07-01T01:36:58;95299.47;;;21.69;57.79
30682;BME280;17439;48.092;11.842;2022-07-01T01:39:25;95288.03;;;21.67;57.39
30682;BME280;17439;48.092;11.842;2022-07-01T01:41:52;95297.13;;;21.71;56.69
30682;BME280;17439;48.092;11.842;2022-07-01T01:44:18;95292.38;;;21.68;55.97
30682;BME280;17439;48.092;11.842;2022-07-01T01:46:45;95293.94;;;21.66;56.04
30682;BME280;17439;48.092;11.842;2022-07-01T01:49:12;95282.91;;;21.66;56.07
30682;BME280;17439;48.092;11.842;2022-07-01T01:51:38;95279.75;;;21.64;55.84
30682;BME280;17439;48.092;11.842;2022-07-01T01:54:05;95282.13;;;21.65;55.83
30682;BME280;17439;48.092;11.842;2022-07-01T01:56:32;95271.47;;;21.64;55.97
30682;BME280;17439;48.092;11.842;2022-07-01T01:58:59;95276.94;;;21.60;55.65
30682;BME280;17439;48.092;11.842;2022-07-01T02:01:26;95277.75;;;21.57;55.77
30682;BME280;17439;48.092;11.842;2022-07-01T02:03:53;95280.47;;;21.53;55.90
30682;BME280;17439;48.092;11.842;2022-07-01T02:06:20;95291.44;;;21.46;55.96
30682;BME280;17439;48.092;11.842;2022-07-01T02:08:47;95284.31;;;21.42;56.21
30682;BME280;17439;48.092;11.842;2022-07-01T02:11:14;95296.13;;;21.38;56.34
30682;BME280;17439;48.092;11.842;2022-07-01T02:13:41;95296.88;;;21.35;56.21
30682;BME280;17439;48.092;11.842;2022-07-01T02:16:07;95304.34;;;21.31;56.45
30682;BME280;17439;48.092;11.842;2022-07-01T02:18:34;95308.66;;;21.29;56.66
30682;BME280;17439;48.092;11.842;2022-07-01T02:21:01;95315.31;;;21.24;56.80
30682;BME280;17439;48.092;11.842;2022-07-01T02:23:33;95318.84;;;21.21;56.75
30682;BME280;17439;48.092;11.842;2022-07-01T02:26:00;95315.25;;;21.17;57.11
30682;BME280;17439;48.092;11.842;2022-07-01T02:28:27;95329.81;;;21.14;57.19
30682;BME280;17439;48.092;11.842;2022-07-01T02:30:53;95333.69;;;21.09;57.30
30682;BME280;17439;48.092;11.842;2022-07-01T02:33:20;95338.44;;;21.09;57.46
30682;BME280;17439;48.092;11.842;2022-07-01T02:35:47;95350.22;;;21.06;57.75
30682;BME280;17439;48.092;11.842;2022-07-01T02:38:15;95352.97;;;21.06;57.79
30682;BME280;17439;48.092;11.842;2022-07-01T02:40:42;95361.25;;;21.06;57.82
30682;BME280;17439;48.092;11.842;2022-07-01T02:43:08;95358.09;;;21.07;58.25
30682;BME280;17439;48.092;11.842;2022-07-01T02:45:35;95365.59;;;21.07;58.11
30682;BME280;17439;48.092;11.842;2022-07-01T02:48:02;95364.41;;;21.08;58.19
30682;BME280;17439;48.092;11.842;2022-07-01T02:50:29;95365.22;;;21.08;58.47
30682;BME280;17439;48.092;11.842;2022-07-01T02:52:57;95360.84;;;21.07;58.09
30682;BME280;17439;48.092;11.842;2022-07-01T02:55:23;95369.53;;;21.09;58.52
30682;BME280;17439;48.092;11.842;2022-07-01T02:57:50;95367.59;;;21.10;58.33
30682;BME280;17439;48.092;11.842;2022-07-01T03:00:18;95375.47;;;21.11;58.58
30682;BME280;17439;48.092;11.842;2022-07-01T03:02:46;95384.16;;;21.13;58.67
30682;BME280;17439;48.092;11.842;2022-07-01T03:05:12;95391.25;;;21.14;58.71
30682;BME280;17439;48.092;11.842;2022-07-01T03:07:39;95381.00;;;21.15;58.85
30682;BME280;17439;48.092;11.842;2022-07-01T03:10:08;95385.75;;;21.18;58.88
30682;BME280;17439;48.092;11.842;2022-07-01T03:12:35;95394.03;;;21.18;58.53
30682;BME280;17439;48.092;11.842;2022-07-01T03:15:07;95376.72;;;21.17;58.68
30682;BME280;17439;48.092;11.842;2022-07-01T03:17:36;95367.69;;;21.20;58.83
30682;BME280;17439;48.092;11.842;2022-07-01T03:20:09;95377.88;;;21.20;58.59
30682;BME280;17439;48.092;11.842;2022-07-01T03:22:37;95384.59;;;21.19;58.37
30682;BME280;17439;48.092;11.842;2022-07-01T03:25:04;95386.91;;;21.17;58.55
30682;BME280;17439;48.092;11.842;2022-07-01T03:27:32;95388.13;;;21.16;58.93
30682;BME280;17439;48.092;11.842;2022-07-01T03:29:59;95389.69;;;21.17;58.75
30682;BME280;17439;48.092;11.842;2022-07-01T03:32:26;95400.69;;;21.17;58.98
30682;BME280;17439;48.092;11.842;2022-07-01T03:34:53;95401.13;;;21.19;59.16
30682;BME280;17439;48.092;11.842;2022-07-01T03:37:21;95403.91;;;21.19;58.95
30682;BME280;17439;48.092;11.842;2022-07-01T03:39:47;95402.22;;;21.11;59.05
30682;BME280;17439;48.092;11.842;2022-07-01T03:42:15;95392.09;;;21.22;58.93
30682;BME280;17439;48.092;11.842;2022-07-01T03:44:42;95396.81;;;21.25;58.86
30682;BME280;17439;48.092;11.842;2022-07-01T03:47:08;95390.56;;;21.28;58.86
30682;BME280;17439;48.092;11.842;2022-07-01T03:49:35;95386.63;;;21.29;59.22
30682;BME280;17439;48.092;11.842;2022-07-01T03:52:03;95391.00;;;21.30;58.87
30682;BME280;17439;48.092;11.842;2022-07-01T03:54:30;95389.78;;;21.31;59.02
30682;BME280;17439;48.092;11.842;2022-07-01T03:57:07;95395.34;;;21.35;59.15
30682;BME280;17439;48.092;11.842;2022-07-01T03:59:39;95405.56;;;21.34;58.98
30682;BME280;17439;48.092;11.842;2022-07-01T04:02:06;95404.44;;;21.39;58.99
30682;BME280;17439;48.092;11.842;2022-07-01T04:04:34;95413.91;;;21.42;59.34
30682;BME280;17439;48.092;11.842;2022-07-01T04:07:04;95404.50;;;21.46;59.17
30682;BME280;17439;48.092;11.842;2022-07-01T04:09:32;95415.19;;;21.51;59.26
30682;BME280;17439;48.092;11.842;2022-07-01T04:11:59;95411.69;;;21.54;58.87
30682;BME280;17439;48.092;11.842;2022-07-01T04:14:26;95405.41;;;21.58;59.00
30682;BME280;17439;48.092;11.842;2022-07-01T04:16:52;95410.16;;;21.61;58.77
30682;BME280;17439;48.092;11.842;2022-07-01T04:19:19;95405.44;;;21.65;59.16
30682;BME280;17439;48.092;11.842;2022-07-01T04:21:46;95400.34;;;21.67;58.85
30682;BME280;17439;48.092;11.842;2022-07-01T04:24:13;95395.63;;;21.71;58.85
30682;BME280;17439;48.092;11.842;2022-07-01T04:26:41;95395.63;;;21.74;58.41
30682;BME280;17439;48.092;11.842;2022-07-01T04:29:07;95389.34;;;21.78;58.77
30682;BME280;17439;48.092;11.842;2022-07-01T04:31:38;95376.75;;;21.77;58.51
30682;BME280;17439;48.092;11.842;2022-07-01T04:34:06;95370.47;;;21.80;58.26
30682;BME280;17439;48.092;11.842;2022-07-01T04:36:34;95376.00;;;21.83;58.32
30682;BME280;17439;48.092;11.842;2022-07-01T04:39:02;95370.09;;;21.85;58.08
30682;BME280;17439;48.092;11.842;2022-07-01T04:41:30;95368.13;;;21.85;58.52
30682;BME280;17439;48.092;11.842;2022-07-01T04:43:57;95368.94;;;21.86;58.29
30682;BME280;17439;48.092;11.842;2022-07-01T04:46:23;95376.44;;;21.89;58.44
30682;BME280;17439;48.092;11.842;2022-07-01T04:48:50;95378.00;;;21.90;58.59
30682;BME280;17439;48.092;11.842;2022-07-01T04:51:17;95383.50;;;21.90;58.43
30682;BME280;17439;48.092;11.842;2022-07-01T04:53:44;95384.72;;;21.92;58.62
30682;BME280;17439;48.092;11.842;2022-07-01T04:56:10;95382.38;;;21.95;58.80
30682;BME280;17439;48.092;11.842;2022-07-01T04:58:37;95374.47;;;21.97;58.81
30682;BME280;17439;48.092;11.842;2022-07-01T05:01:04;95372.53;;;22.01;58.98
30682;BME280;17439;48.092;11.842;2022-07-01T05:03:30;95372.16;;;22.06;58.82
30682;BME280;17439;48.092;11.842;2022-07-01T05:05:57;95362.72;;;22.10;58.62
30682;BME280;17439;48.092;11.842;2022-07-01T05:08:24;95354.88;;;22.16;58.59
30682;BME280;17439;48.092;11.842;2022-07-01T05:10:51;95359.22;;;22.21;58.66
30682;BME280;17439;48.092;11.842;2022-07-01T05:13:17;95353.31;;;22.26;58.50
30682;BME280;17439;48.092;11.842;2022-07-01T05:15:44;95352.59;;;22.33;58.61
30682;BME280;17439;48.092;11.842;2022-07-01T05:18:11;95351.41;;;22.37;58.51
30682;BME280;17439;48.092;11.842;2022-07-01T05:20:38;95354.19;;;22.44;58.11
30682;BME280;17439;48.092;11.842;2022-07-01T05:23:04;95353.03;;;22.49;58.35
30682;BME280;17439;48.092;11.842;2022-07-01T05:25:31;95366.09;;;22.56;58.23
30682;BME280;17439;48.092;11.842;2022-07-01T05:27:57;95364.09;;;22.60;58.08
30682;BME280;17439;48.092;11.842;2022-07-01T05:30:24;95373.19;;;22.64;58.35
30682;BME280;17439;48.092;11.842;2022-07-01T05:32:51;95371.63;;;22.70;58.01
30682;BME280;17439;48.092;11.842;2022-07-01T05:35:18;95369.66;;;22.74;57.80
30682;BME280;17439;48.092;11.842;2022-07-01T05:37:44;95377.94;;;22.78;57.55
30682;BME280;17439;48.092;11.842;2022-07-01T05:40:11;95374.00;;;22.82;57.90
30682;BME280;17439;48.092;11.842;2022-07-01T05:42:38;95370.06;;;22.87;57.54
30682;BME280;17439;48.092;11.842;2022-07-01T05:45:05;95361.41;;;22.92;56.51
30682;BME280;17439;48.092;11.842;2022-07-01T05:47:32;95361.00;;;22.94;56.37
30682;BME280;17439;48.092;11.842;2022-07-01T05:49:58;95367.72;;;22.96;56.51
30682;BME280;17439;48.092;11.842;2022-07-01T05:52:25;95367.31;;;22.98;56.17
30682;BME280;17439;48.092;11.842;2022-07-01T05:54:52;95379.97;;;22.99;56.31
30682;BME280;17439;48.092;11.842;2022-07-01T05:57:18;95384.31;;;23.00;56.39
30682;BME280;17439;48.092;11.842;2022-07-01T05:59:45;95389.44;;;22.98;56.60
30682;BME280;17439;48.092;11.842;2022-07-01T06:02:11;95394.56;;;22.99;56.70
30682;BME280;17439;48.092;11.842;2022-07-01T06:04:38;95407.59;;;23.03;56.55
30682;BME280;17439;48.092;11.842;2022-07-01T06:07:05;95408.00;;;23.05;56.20
30682;BME280;17439;48.092;11.842;2022-07-01T06:09:32;95411.19;;;23.07;56.36
30682;BME280;17439;48.092;11.842;2022-07-01T06:11:58;95422.66;;;23.09;55.94
30682;BME280;17439;48.092;11.842;2022-07-01T06:14:25;95423.84;;;23.08;55.52
30682;BME280;17439;48.092;11.842;2022-07-01T06:16:52;95421.44;;;23.06;55.73
30682;BME280;17439;48.092;11.842;2022-07-01T06:19:18;95429.34;;;23.04;55.70
30682;BME280;17439;48.092;11.842;2022-07-01T06:21:45;95434.88;;;23.04;56.29
30682;BME280;17439;48.092;11.842;2022-07-01T06:24:12;95430.50;;;23.03;56.22
30682;BME280;17439;48.092;11.842;2022-07-01T06:26:39;95441.16;;;23.05;56.30
30682;BME280;17439;48.092;11.842;2022-07-01T06:29:06;95447.50;;;23.05;56.43
30682;BME280;17439;48.092;11.842;2022-07-01T06:31:33;95445.13;;;23.07;56.59
30682;BME280;17439;48.092;11.842;2022-07-01T06:34:00;95451.91;;;23.10;56.51
30682;BME280;17439;48.092;11.842;2022-07-01T06:36:26;95456.22;;;23.14;57.09
30682;BME280;17439;48.092;11.842;2022-07-01T06:38:53;95468.09;;;23.22;56.74
30682;BME280;17439;48.092;11.842;2022-07-01T06:41:20;95474.81;;;23.28;56.82
30682;BME280;17439;48.092;11.842;2022-07-01T06:43:46;95471.69;;;23.37;56.32
30682;BME280;17439;48.092;11.842;2022-07-01T06:46:13;95458.63;;;23.41;56.10
30682;BME280;17439;48.092;11.842;2022-07-01T06:48:40;95452.31;;;23.48;55.81
30682;BME280;17439;48.092;11.842;2022-07-01T06:51:07;95452.31;;;23.55;55.68
30682;BME280;17439;48.092;11.842;2022-07-01T06:53:33;95459.06;;;23.58;54.40
30682;BME280;17439;48.092;11.842;2022-07-01T06:56:00;95457.06;;;23.62;53.68
30682;BME280;17439;48.092;11.842;2022-07-01T06:58:27;95449.94;;;23.68;52.47
30682;BME280;17439;48.092;11.842;2022-07-01T07:00:53;95453.91;;;23.70;53.09
30682;BME280;17439;48.092;11.842;2022-07-01T07:03:20;95453.50;;;23.72;52.99
30682;BME280;17439;48.092;11.842;2022-07-01T07:05:47;95454.28;;;23.76;53.46
30682;BME280;17439;48.092;11.842;2022-07-01T07:08:14;95460.25;;;23.85;53.67
30682;BME280;17439;48.092;11.842;2022-07-01T07:10:40;95449.56;;;23.91;53.59
30682;BME280;17439;48.092;11.842;2022-07-01T07:13:07;95454.31;;;23.98;52.74
30682;BME280;17439;48.092;11.842;2022-07-01T07:15:33;95455.47;;;24.04;53.15
30682;BME280;17439;48.092;11.842;2022-07-01T07:18:00;95466.53;;;24.11;52.40
30682;BME280;17439;48.092;11.842;2022-07-01T07:20:27;95464.13;;;24.20;50.77
30682;BME280;17439;48.092;11.842;2022-07-01T07:22:54;95462.16;;;24.17;51.49
30682;BME280;17439;48.092;11.842;2022-07-01T07:25:20;95457.41;;;24.18;51.52
30682;BME280;17439;48.092;11.842;2022-07-01T07:27:47;95450.69;;;24.15;51.16
30682;BME280;17439;48.092;11.842;2022-07-01T07:30:14;95445.16;;;24.08;51.21
30682;BME280;17439;48.092;11.842;2022-07-01T07:32:40;95447.56;;;24.02;51.70
30682;BME280;17439;48.092;11.842;2022-07-01T07:35:09;95445.22;;;23.90;51.37
30682;BME280;17439;48.092;11.842;2022-07-01T07:37:36;95446.78;;;23.80;51.70
30682;BME280;17439;48.092;11.842;2022-07-01T07:40:04;95466.13;;;23.73;51.60
30682;BME280;17439;48.092;11.842;2022-07-01T07:42:32;95472.09;;;23.61;52.22
30682;BME280;17439;48.092;11.842;2022-07-01T07:44:58;95472.88;;;23.50;52.72
30682;BME280;17439;48.092;11.842;2022-07-01T07:47:25;95474.03;;;23.46;52.00
30682;BME280;17439;48.092;11.842;2022-07-01T07:49:51;95469.31;;;23.39;52.64
30682;BME280;17439;48.092;11.842;2022-07-01T07:52:18;95468.09;;;23.33;52.92
30682;BME280;17439;48.092;11.842;2022-07-01T07:54:45;95465.72;;;23.35;52.46
30682;BME280;17439;48.092;11.842;2022-07-01T07:57:11;95472.44;;;23.30;52.45
30682;BME280;17439;48.092;11.842;2022-07-01T07:59:38;95471.28;;;23.28;52.76
30682;BME280;17439;48.092;11.842;2022-07-01T08:02:04;95467.69;;;23.27;53.51
30682;BME280;17439;48.092;11.842;2022-07-01T08:04:31;95467.31;;;23.36;52.83
30682;BME280;17439;48.092;11.842;2022-07-01T08:06:58;95465.75;;;23.42;52.96
30682;BME280;17439;48.092;11.842;2022-07-01T08:09:26;95469.31;;;23.53;52.25
30682;BME280;17439;48.092;11.842;2022-07-01T08:11:52;95477.63;;;23.50;52.04
30682;BME280;17439;48.092;11.842;2022-07-01T08:14:19;95477.63;;;23.68;52.58
30682;BME280;17439;48.092;11.842;2022-07-01T08:16:49;95483.94;;;23.79;52.25
30682;BME280;17439;48.092;11.842;2022-07-01T08:19:16;95488.69;;;23.86;52.01
30682;BME280;17439;48.092;11.842;2022-07-01T08:21:42;95501.78;;;23.93;52.04
30682;BME280;17439;48.092;11.842;2022-07-01T08:24:09;95497.38;;;23.99;52.12
30682;BME280;17439;48.092;11.842;2022-07-01T08:26:35;95493.44;;;24.00;51.67
30682;BME280;17439;48.092;11.842;2022-07-01T08:29:03;95498.97;;;24.00;51.83
30682;BME280;17439;48.092;11.842;2022-07-01T08:31:29;95497.38;;;23.99;52.19
30682;BME280;17439;48.092;11.842;2022-07-01T08:33:57;95516.00;;;23.95;52.29
30682;BME280;17439;48.092;11.842;2022-07-01T08:36:24;95526.66;;;23.89;52.65
30682;BME280;17439;48.092;11.842;2022-07-01T08:38:51;95532.19;;;23.82;52.05
30682;BME280;17439;48.092;11.842;2022-07-01T08:41:17;95540.06;;;23.76;51.82
30682;BME280;17439;48.092;11.842;2022-07-01T08:43:44;95535.34;;;23.66;51.40
30682;BME280;17439;48.092;11.842;2022-07-01T08:46:11;95545.19;;;23.52;51.24
30682;BME280;17439;48.092;11.842;2022-07-01T08:48:44;95560.97;;;23.34;51.33
30682;BME280;17439;48.092;11.842;2022-07-01T08:51:11;95563.28;;;23.14;51.93
30682;BME280;17439;48.092;11.842;2022-07-01T08:53:39;95578.16;;;22.88;51.56
30682;BME280;17439;48.092;11.842;2022-07-01T08:56:05;95591.00;;;22.55;50.55
30682;BME280;17439;48.092;11.842;2022-07-01T08:58:32;95599.81;;;22.23;50.03
30682;BME280;17439;48.092;11.842;2022-07-01T09:01:15;95610.94;;;21.85;50.25
30682;BME280;17439;48.092;11.842;2022-07-01T09:03:43;95620.03;;;21.48;51.03
30682;BME280;17439;48.092;11.842;2022-07-01T09:06:31;95616.38;;;21.07;51.41
30682;BME280;17439;48.092;11.842;2022-07-01T09:09:13;95625.34;;;20.70;51.66
30682;BME280;17439;48.092;11.842;2022-07-01T09:11:54;95636.53;;;20.30;52.32
30682;BME280;17439;48.092;11.842;2022-07-01T09:14:24;95644.31;;;20.02;53.18
30682;BME280;17439;48.092;11.842;2022-07-01T09:16:52;95652.03;;;19.73;53.57
30682;BME280;17439;48.092;11.842;2022-07-01T09:19:21;95649.19;;;19.46;54.36
30682;BME280;17439;48.092;11.842;2022-07-01T09:21:50;95651.72;;;19.16;54.58
30682;BME280;17439;48.092;11.842;2022-07-01T09:24:33;95648.31;;;19.03;56.18
30682;BME280;17439;48.092;11.842;2022-07-01T09:27:14;95661.03;;;18.92;55.47
30682;BME280;17439;48.092;11.842;2022-07-01T09:29:46;95662.72;;;18.80;55.84
30682;BME280;17439;48.092;11.842;2022-07-01T09:32:16;95660.97;;;18.72;55.96
30682;BME280;17439;48.092;11.842;2022-07-01T09:34:53;95653.28;;;18.62;56.73
30682;BME280;17439;48.092;11.842;2022-07-01T09:37:24;95657.03;;;18.54;56.64
30682;BME280;17439;48.092;11.842;2022-07-01T09:39:55;95656.56;;;18.52;56.89
30682;BME280;17439;48.092;11.842;2022-07-01T09:42:24;95658.81;;;18.46;57.04
30682;BME280;17439;48.092;11.842;2022-07-01T09:47:29;95671.56;;;18.38;57.25
30682;BME280;17439;48.092;11.842;2022-07-01T09:50:00;95667.56;;;18.36;57.08
30682;BME280;17439;48.092;11.842;2022-07-01T09:52:26;95674.22;;;18.35;57.35
30682;BME280;17439;48.092;11.842;2022-07-01T09:55:04;95683.25;;;18.35;57.66
30682;BME280;17439;48.092;11.842;2022-07-01T09:57:31;95680.16;;;18.37;57.31
30682;BME280;17439;48.092;11.842;2022-07-01T09:59:58;95690.78;;;18.38;57.22
30682;BME280;17439;48.092;11.842;2022-07-01T10:02:26;95695.47;;;18.38;57.54
30682;BME280;17439;48.092;11.842;2022-07-01T10:04:59;95695.41;;;18.34;58.68
30682;BME280;17439;48.092;11.842;2022-07-01T10:13:17;95699.81;;;18.23;58.89
30682;BME280;17439;48.092;11.842;2022-07-01T10:15:45;95698.94;;;18.19;59.15
30682;BME280;17439;48.092;11.842;2022-07-01T10:18:24;95712.94;;;18.13;59.94
30682;BME280;17439;48.092;11.842;2022-07-01T10:20:52;95713.63;;;18.10;59.65
30682;BME280;17439;48.092;11.842;2022-07-01T10:23:21;95722.91;;;18.06;60.10
30682;BME280;17439;48.092;11.842;2022-07-01T10:25:50;95718.13;;;18.03;60.56
30682;BME280;17439;48.092;11.842;2022-07-01T10:31:07;95728.56;;;17.97;60.58
30682;BME280;17439;48.092;11.842;2022-07-01T10:33:43;95731.22;;;17.93;63.10
30682;BME280;17439;48.092;11.842;2022-07-01T10:36:15;95739.00;;;17.91;62.49
30682;BME280;17439;48.092;11.842;2022-07-01T10:41:41;95737.41;;;17.90;62.63
30682;BME280;17439;48.092;11.842;2022-07-01T10:44:14;95740.03;;;17.87;61.94
30682;BME280;17439;48.092;11.842;2022-07-01T10:46:44;95736.47;;;17.86;61.97
30682;BME280;17439;48.092;11.842;2022-07-01T10:49:21;95737.97;;;17.84;62.71
30682;BME280;17439;48.092;11.842;2022-07-01T10:52:09;95729.66;;;17.80;62.40
30682;BME280;17439;48.092;11.842;2022-07-01T10:57:19;95729.19;;;17.78;62.18
30682;BME280;17439;48.092;11.842;2022-07-01T11:00:33;95728.41;;;17.77;62.84
30682;BME280;17439;48.092;11.842;2022-07-01T11:02:38;95729.53;;;17.76;62.84
30682;BME280;17439;48.092;11.842;2022-07-01T11:05:15;95734.59;;;17.74;63.37
30682;BME280;17439;48.092;11.842;2022-07-01T11:07:45;95742.81;;;17.74;63.58
30682;BME280;17439;48.092;11.842;2022-07-01T11:10:14;95745.19;;;17.76;63.48
30682;BME280;17439;48.092;11.842;2022-07-01T11:12:41;95746.47;;;17.79;63.35
30682;BME280;17439;48.092;11.842;2022-07-01T11:15:08;95740.50;;;17.76;63.42
30682;BME280;17439;48.092;11.842;2022-07-01T11:17:41;95748.03;;;17.80;62.98
30682;BME280;17439;48.092;11.842;2022-07-01T11:20:09;95735.16;;;17.80;63.17
30682;BME280;17439;48.092;11.842;2022-07-01T11:22:36;95730.00;;;17.79;63.15
30682;BME280;17439;48.092;11.842;2022-07-01T11:25:07;95737.53;;;17.82;63.30
30682;BME280;17439;48.092;11.842;2022-07-01T11:27:35;95735.22;;;17.84;63.38
30682;BME280;17439;48.092;11.842;2022-07-01T11:30:07;95744.94;;;17.81;63.70
30682;BME280;17439;48.092;11.842;2022-07-01T11:32:36;95751.69;;;17.84;63.70
30682;BME280;17439;48.092;11.842;2022-07-01T11:35:05;95758.75;;;17.85;63.73
30682;BME280;17439;48.092;11.842;2022-07-01T11:37:32;95760.81;;;17.88;63.77
30682;BME280;17439;48.092;11.842;2022-07-01T11:40:12;95759.13;;;17.83;64.91
30682;BME280;17439;48.092;11.842;2022-07-01T11:42:40;95759.22;;;17.87;64.02
30682;BME280;17439;48.092;11.842;2022-07-01T11:45:25;95745.84;;;17.85;64.45
30682;BME280;17439;48.092;11.842;2022-07-01T11:47:53;95752.59;;;17.88;64.15
30682;BME280;17439;48.092;11.842;2022-07-01T11:50:20;95747.78;;;17.85;64.38
30682;BME280;17439;48.092;11.842;2022-07-01T11:52:47;95759.22;;;17.87;64.34
30682;BME280;17439;48.092;11.842;2022-07-01T11:55:18;95769.72;;;17.85;64.92
30682;BME280;17439;48.092;11.842;2022-07-01T11:58:02;95787.34;;;17.84;64.65
30682;BME280;17439;48.092;11.842;2022-07-01T12:00:33;95798.31;;;17.84;64.62
30682;BME280;17439;48.092;11.842;2022-07-01T12:03:00;95801.03;;;17.84;64.58
30682;BME280;17439;48.092;11.842;2022-07-01T12:05:27;95800.25;;;17.83;64.52
30682;BME280;17439;48.092;11.842;2022-07-01T12:07:54;95788.13;;;17.84;64.86
30682;BME280;17439;48.092;11.842;2022-07-01T12:10:27;95782.19;;;17.82;65.33
30682;BME280;17439;48.092;11.842;2022-07-01T12:12:55;95777.28;;;17.88;64.50
30682;BME280;17439;48.092;11.842;2022-07-01T12:15:22;95763.69;;;17.91;64.54
30682;BME280;17439;48.092;11.842;2022-07-01T12:17:49;95733.16;;;17.93;64.98
30682;BME280;17439;48.092;11.842;2022-07-01T12:20:30;95702.72;;;17.98;65.60
30682;BME280;17439;48.092;11.842;2022-07-01T12:23:11;95724.84;;;18.05;65.57
30682;BME280;17439;48.092;11.842;2022-07-01T12:25:38;95742.19;;;18.09;66.14
30682;BME280;17439;48.092;11.842;2022-07-01T12:28:04;95766.34;;;18.20;66.16
30682;BME280;17439;48.092;11.842;2022-07-01T12:30:31;95768.25;;;18.31;66.77
30682;BME280;17439;48.092;11.842;2022-07-01T12:32:57;95764.19;;;18.41;66.54
30682;BME280;17439;48.092;11.842;2022-07-01T12:35:24;95782.75;;;18.48;65.75
30682;BME280;17439;48.092;11.842;2022-07-01T12:37:51;95784.53;;;18.56;64.90
30682;BME280;17439;48.092;11.842;2022-07-01T12:40:26;95798.03;;;18.61;64.94
30682;BME280;17439;48.092;11.842;2022-07-01T12:42:53;95805.19;;;18.66;64.75
30682;BME280;17439;48.092;11.842;2022-07-01T12:45:24;95809.16;;;18.68;63.83
30682;BME280;17439;48.092;11.842;2022-07-01T12:47:52;95823.31;;;18.71;63.78
30682;BME280;17439;48.092;11.842;2022-07-01T12:50:21;95821.41;;;18.71;64.03
30682;BME280;17439;48.092;11.842;2022-07-01T12:53:01;95821.75;;;18.70;63.35
30682;BME280;17439;48.092;11.842;2022-07-01T12:55:32;95827.25;;;18.70;63.07
30682;BME280;17439;48.092;11.842;2022-07-01T12:57:59;95828.75;;;18.67;63.52
30682;BME280;17439;48.092;11.842;2022-07-01T13:00:27;95834.16;;;18.63;63.62
30682;BME280;17439;48.092;11.842;2022-07-01T13:02:57;95827.75;;;18.59;63.59
30682;BME280;17439;48.092;11.842;2022-07-01T13:05:24;95828.47;;;18.56;63.56
30682;BME280;17439;48.092;11.842;2022-07-01T13:07:51;95823.59;;;18.49;63.69
30682;BME280;17439;48.092;11.842;2022-07-01T13:10:18;95825.91;;;18.47;63.56
30682;BME280;17439;48.092;11.842;2022-07-01T13:12:46;95823.06;;;18.44;63.75